Time;durP1;ratioP1;P1;durP2;ratioP2;P2;SDS_P1;SDS_P2;PMS_P1;PMS_P2;Temp;Humidity;BMP_temperature;BMP_pressure;BME280_temperature;BME280_humidity;BME280_pressure;Samples;Min_cycle;Max_cycle;Signal;HPM_P1;HPM_P2
2022/09/03 00:00:47;;;;;;;8.17;4.00;;;17.30;25.90;;;;;;5049206;28;20540;-66
2022/09/03 00:03:19;;;;;;;8.63;3.93;;;17.30;25.40;;;;;;5042852;28;21027;-66
2022/09/03 00:05:51;;;;;;;8.03;2.97;;;17.30;25.50;;;;;;5041502;28;20469;-66
2022/09/03 00:08:25;;;;;;;7.07;3.57;;;17.30;25.50;;;;;;5039366;28;20521;-66
2022/09/03 00:10:56;;;;;;;6.23;3.50;;;17.30;25.70;;;;;;5044952;28;20454;-66
2022/09/03 00:13:25;;;;;;;9.10;4.10;;;17.30;25.50;;;;;;5042314;28;20485;-66
2022/09/03 00:15:55;;;;;;;6.57;3.40;;;17.30;25.50;;;;;;5042707;28;20457;-66
2022/09/03 00:18:24;;;;;;;5.50;3.30;;;17.30;25.60;;;;;;5040471;28;20464;-66
2022/09/03 00:20:58;;;;;;;5.57;3.80;;;17.30;25.60;;;;;;5046684;28;20466;-66
2022/09/03 00:23:28;;;;;;;5.80;3.60;;;17.30;25.70;;;;;;5044965;28;20572;-66
2022/09/03 00:26:00;;;;;;;5.10;3.57;;;17.20;25.70;;;;;;5046026;28;20462;-66
2022/09/03 00:28:35;;;;;;;6.80;3.73;;;17.20;26.00;;;;;;5045884;28;20531;-66
2022/09/03 00:31:11;;;;;;;8.60;3.90;;;17.20;26.10;;;;;;5044816;28;20472;-66
2022/09/03 00:33:41;;;;;;;6.90;3.40;;;17.10;26.00;;;;;;5044538;28;20599;-66
2022/09/03 00:36:16;;;;;;;7.60;3.90;;;17.10;26.10;;;;;;5041103;28;20457;-66
2022/09/03 00:38:43;;;;;;;6.80;3.67;;;17.10;26.30;;;;;;5043759;28;20483;-66
2022/09/03 00:41:23;;;;;;;7.47;3.90;;;17.10;26.20;;;;;;5047686;28;20464;-66
2022/09/03 00:44:09;;;;;;;7.20;4.30;;;17.00;26.40;;;;;;5042867;28;20477;-66
2022/09/03 00:46:42;;;;;;;7.10;4.03;;;17.00;26.40;;;;;;5044749;28;20465;-66
2022/09/03 00:49:28;;;;;;;9.47;4.20;;;16.90;26.50;;;;;;5040031;28;20454;-66
2022/09/03 00:52:10;;;;;;;7.20;3.87;;;16.90;26.50;;;;;;5044766;28;20458;-66
2022/09/03 00:54:43;;;;;;;6.70;3.80;;;16.80;26.50;;;;;;5042053;28;20481;-66
2022/09/03 00:57:24;;;;;;;7.67;4.33;;;16.80;26.40;;;;;;5041686;28;20466;-66
2022/09/03 00:59:59;;;;;;;6.60;3.73;;;16.70;26.60;;;;;;5045706;28;20453;-66
2022/09/03 01:02:36;;;;;;;5.90;3.30;;;16.70;26.70;;;;;;5043208;28;21031;-66
2022/09/03 01:05:10;;;;;;;8.70;4.37;;;16.70;26.80;;;;;;5040653;28;20450;-66
2022/09/03 01:07:48;;;;;;;6.10;3.90;;;16.70;26.90;;;;;;5042532;28;20509;-66
2022/09/03 01:10:26;;;;;;;10.10;3.83;;;16.60;27.20;;;;;;5040838;28;20462;-66
2022/09/03 01:13:01;;;;;;;8.03;4.47;;;16.50;27.40;;;;;;5041207;28;21213;-66
2022/09/03 01:15:32;;;;;;;8.73;4.53;;;16.50;27.60;;;;;;5039966;28;20456;-66
2022/09/03 01:18:09;;;;;;;10.43;4.60;;;16.40;27.60;;;;;;5039614;28;20454;-66
2022/09/03 01:20:46;;;;;;;9.40;3.83;;;16.40;28.20;;;;;;5044048;28;20461;-65
2022/09/03 01:23:38;;;;;;;8.60;4.10;;;16.40;28.20;;;;;;5037523;28;20528;-66
2022/09/03 01:26:25;;;;;;;8.03;3.87;;;16.40;28.50;;;;;;5045647;28;20461;-66
2022/09/03 01:29:06;;;;;;;7.90;3.80;;;16.30;28.30;;;;;;5044000;28;20463;-66
2022/09/03 01:31:41;;;;;;;6.90;4.23;;;16.30;28.10;;;;;;5041711;28;20540;-65
2022/09/03 01:34:18;;;;;;;5.83;3.90;;;16.30;28.30;;;;;;5038486;28;20992;-66
2022/09/03 01:36:55;;;;;;;7.13;3.70;;;16.30;28.40;;;;;;5042495;28;20458;-66
2022/09/03 01:39:33;;;;;;;9.50;4.87;;;16.30;28.30;;;;;;5044401;28;20465;-66
2022/09/03 01:42:15;;;;;;;8.40;4.70;;;16.30;28.50;;;;;;5045709;28;20469;-66
2022/09/03 01:45:05;;;;;;;6.10;4.43;;;16.30;28.40;;;;;;5038857;28;20461;-66
2022/09/03 01:47:49;;;;;;;7.00;4.33;;;16.30;28.50;;;;;;5042227;28;21219;-66
2022/09/03 01:50:26;;;;;;;7.90;4.70;;;16.20;28.50;;;;;;5041080;28;20896;-66
2022/09/03 01:52:59;;;;;;;6.50;4.77;;;16.20;28.90;;;;;;5041841;28;20929;-66
2022/09/03 01:55:32;;;;;;;7.07;4.23;;;16.10;29.10;;;;;;5045659;28;20459;-66
2022/09/03 01:58:02;;;;;;;6.70;4.10;;;16.10;29.30;;;;;;5049850;28;20466;-66
2022/09/03 02:00:32;;;;;;;9.73;4.17;;;16.00;29.50;;;;;;5043563;28;20997;-66
2022/09/03 02:03:04;;;;;;;5.77;3.63;;;16.00;29.40;;;;;;5040774;28;20874;-66
2022/09/03 02:05:33;;;;;;;6.27;4.50;;;15.90;29.60;;;;;;5040323;28;20458;-66
2022/09/03 02:08:02;;;;;;;9.13;4.70;;;15.90;29.70;;;;;;5043292;28;20462;-66
2022/09/03 02:10:32;;;;;;;7.30;4.37;;;15.90;29.80;;;;;;5043376;28;20465;-66
2022/09/03 02:13:04;;;;;;;7.50;4.57;;;15.90;29.70;;;;;;5043483;28;20481;-66
2022/09/03 02:15:34;;;;;;;7.73;4.60;;;15.80;29.80;;;;;;5042527;28;20461;-66
2022/09/03 02:18:03;;;;;;;6.93;4.30;;;15.80;30.50;;;;;;5044425;28;20458;-66
2022/09/03 02:20:30;;;;;;;8.63;4.67;;;15.70;29.80;;;;;;5043879;28;20954;-66
2022/09/03 02:22:58;;;;;;;6.47;4.20;;;15.70;29.90;;;;;;5041757;28;20482;-66
2022/09/03 02:25:31;;;;;;;11.90;5.60;;;15.70;30.70;;;;;;5040741;28;20458;-65
2022/09/03 02:27:59;;;;;;;10.87;4.63;;;15.60;30.10;;;;;;5041732;28;20469;-65
2022/09/03 02:30:25;;;;;;;6.47;3.80;;;15.60;30.00;;;;;;5037764;28;20470;-66
2022/09/03 02:32:53;;;;;;;6.27;4.10;;;15.60;30.10;;;;;;5041202;28;21072;-66
2022/09/03 02:35:20;;;;;;;7.90;4.27;;;15.60;30.10;;;;;;5039828;28;20501;-66
2022/09/03 02:37:47;;;;;;;7.20;4.13;;;15.60;30.20;;;;;;5041678;28;20492;-65
2022/09/03 02:40:14;;;;;;;7.00;4.37;;;15.60;30.20;;;;;;5044444;28;20501;-66
2022/09/03 02:42:41;;;;;;;6.93;4.30;;;15.50;30.40;;;;;;5042800;28;20929;-66
2022/09/03 02:45:19;;;;;;;7.60;4.30;;;15.50;30.60;;;;;;5043396;28;20461;-66
2022/09/03 02:47:50;;;;;;;7.53;3.93;;;15.40;31.00;;;;;;5044465;28;20466;-66
2022/09/03 02:50:18;;;;;;;8.30;4.50;;;15.40;30.80;;;;;;5043631;28;20458;-66
2022/09/03 02:52:45;;;;;;;6.73;3.83;;;15.40;31.20;;;;;;5039861;28;20480;-66
2022/09/03 02:55:11;;;;;;;6.00;3.73;;;15.50;31.40;;;;;;5040772;28;20474;-66
2022/09/03 02:57:38;;;;;;;6.43;4.03;;;15.50;31.40;;;;;;5042052;28;20462;-66
2022/09/03 03:00:06;;;;;;;7.00;4.23;;;15.50;31.10;;;;;;5043133;28;20478;-66
2022/09/03 03:02:33;;;;;;;6.27;3.80;;;15.50;31.00;;;;;;5041174;28;20505;-66
2022/09/03 03:05:00;;;;;;;7.10;3.97;;;15.50;30.90;;;;;;5040365;28;20461;-67
2022/09/03 03:07:31;;;;;;;6.37;4.00;;;15.50;31.30;;;;;;5043386;28;20454;-67
2022/09/03 03:09:58;;;;;;;10.10;4.90;;;15.50;31.30;;;;;;5042315;28;20458;-67
2022/09/03 03:12:25;;;;;;;5.63;3.80;;;15.60;31.30;;;;;;5043021;28;20488;-66
2022/09/03 03:14:52;;;;;;;7.90;3.67;;;15.60;31.40;;;;;;5040138;28;20489;-66
2022/09/03 03:17:19;;;;;;;5.10;3.57;;;15.60;31.10;;;;;;5039798;28;21079;-66
2022/09/03 03:19:45;;;;;;;5.83;3.77;;;15.60;30.80;;;;;;5042388;28;20532;-66
2022/09/03 03:22:12;;;;;;;6.43;3.53;;;15.60;30.60;;;;;;5046182;28;20462;-66
2022/09/03 03:24:40;;;;;;;6.77;3.97;;;15.60;30.80;;;;;;5042975;28;20473;-65
2022/09/03 03:27:09;;;;;;;6.27;3.53;;;15.70;30.60;;;;;;5045692;28;20827;-66
2022/09/03 03:29:36;;;;;;;7.00;4.27;;;15.70;30.30;;;;;;5043463;28;20477;-66
2022/09/03 03:32:03;;;;;;;6.70;3.60;;;15.70;30.50;;;;;;5046845;28;20924;-66
2022/09/03 03:34:30;;;;;;;6.03;3.90;;;15.70;30.80;;;;;;5041220;28;20850;-66
2022/09/03 03:36:57;;;;;;;6.33;3.77;;;15.70;31.20;;;;;;5075602;22;20484;-68
2022/09/03 03:39:24;;;;;;;6.93;3.47;;;15.70;31.20;;;;;;5079077;28;21044;-68
2022/09/03 03:41:52;;;;;;;6.47;3.93;;;15.70;31.10;;;;;;5084857;28;20471;-68
2022/09/03 03:44:19;;;;;;;6.23;3.90;;;15.80;30.80;;;;;;5081922;28;20517;-68
2022/09/03 03:46:46;;;;;;;6.13;3.80;;;15.80;30.70;;;;;;5081128;28;20489;-68
2022/09/03 03:49:13;;;;;;;6.70;3.50;;;15.80;30.40;;;;;;5079575;28;21186;-68
2022/09/03 03:51:40;;;;;;;8.63;3.47;;;15.80;30.30;;;;;;5081920;28;20476;-68
2022/09/03 03:54:07;;;;;;;5.10;3.57;;;15.80;30.10;;;;;;5078619;28;20588;-68
2022/09/03 03:56:34;;;;;;;5.70;3.87;;;15.80;30.10;;;;;;5080584;28;20488;-68
2022/09/03 03:59:03;;;;;;;6.77;3.90;;;15.80;30.90;;;;;;5083893;28;20471;-68
2022/09/03 04:01:30;;;;;;;6.77;4.37;;;15.70;31.60;;;;;;5078564;28;21152;-68
2022/09/03 04:03:58;;;;;;;5.67;3.70;;;15.70;31.60;;;;;;5070385;28;21167;-68
2022/09/03 04:06:25;;;;;;;6.43;4.40;;;15.70;32.00;;;;;;5064066;28;20484;-68
2022/09/03 04:08:52;;;;;;;5.67;3.90;;;15.70;32.20;;;;;;5079827;28;20472;-68
2022/09/03 04:11:21;;;;;;;7.20;3.90;;;15.70;32.50;;;;;;5074239;28;21200;-69
2022/09/03 04:13:49;;;;;;;6.67;4.13;;;15.70;32.70;;;;;;5079437;28;20455;-69
2022/09/03 04:16:19;;;;;;;7.93;4.53;;;15.70;32.60;;;;;;5085620;28;20476;-67
2022/09/03 04:18:47;;;;;;;6.13;4.03;;;15.70;32.60;;;;;;5081779;28;20817;-67
2022/09/03 04:21:16;;;;;;;7.47;4.20;;;15.70;32.80;;;;;;5082071;28;20495;-67
2022/09/03 04:23:46;;;;;;;6.33;4.17;;;15.70;33.00;;;;;;5081397;28;20475;-67
2022/09/03 04:26:14;;;;;;;6.20;3.77;;;15.70;33.10;;;;;;5082324;28;20476;-67
2022/09/03 04:28:41;;;;;;;6.77;4.93;;;15.70;32.70;;;;;;5076312;28;20991;-67
2022/09/03 04:31:09;;;;;;;7.47;4.00;;;15.60;32.50;;;;;;5079675;28;20592;-67
2022/09/03 04:33:38;;;;;;;7.80;4.83;;;15.60;32.40;;;;;;5079178;28;20456;-67
2022/09/03 04:36:07;;;;;;;8.47;4.30;;;15.60;32.80;;;;;;5077258;28;21002;-67
2022/09/03 04:38:34;;;;;;;5.80;3.80;;;15.60;32.70;;;;;;5081450;28;20460;-66
2022/09/03 04:41:01;;;;;;;5.60;3.80;;;15.60;33.00;;;;;;5082377;28;20550;-68
2022/09/03 04:43:29;;;;;;;5.93;4.23;;;15.60;33.20;;;;;;5084476;28;20987;-67
2022/09/03 04:45:59;;;;;;;8.43;4.27;;;15.60;33.30;;;;;;5079278;28;20955;-68
2022/09/03 04:48:26;;;;;;;6.87;4.40;;;15.60;33.50;;;;;;5078074;28;20964;-67
2022/09/03 04:50:55;;;;;;;9.60;4.70;;;15.50;33.80;;;;;;5081597;28;21159;-67
2022/09/03 04:53:22;;;;;;;7.13;4.33;;;15.60;33.50;;;;;;5079646;28;20457;-67
2022/09/03 04:55:49;;;;;;;6.10;4.07;;;15.60;33.20;;;;;;5079313;28;20529;-67
2022/09/03 04:58:16;;;;;;;6.67;4.10;;;15.60;33.20;;;;;;5083312;28;20517;-67
2022/09/03 05:00:43;;;;;;;10.87;4.80;;;15.60;33.30;;;;;;5081765;28;20472;-67
2022/09/03 05:03:10;;;;;;;8.10;4.70;;;15.60;33.40;;;;;;5080659;28;20457;-67
2022/09/03 05:05:37;;;;;;;6.53;4.70;;;15.60;33.20;;;;;;5078136;28;20543;-67
2022/09/03 05:08:06;;;;;;;7.13;4.30;;;15.60;33.40;;;;;;5079254;28;20961;-67
2022/09/03 05:10:33;;;;;;;7.03;4.60;;;15.60;33.80;;;;;;5071301;28;20945;-66
2022/09/03 05:13:01;;;;;;;9.53;4.50;;;15.70;34.10;;;;;;5080573;28;20468;-68
2022/09/03 05:15:27;;;;;;;7.03;4.93;;;15.60;34.20;;;;;;5082215;28;20480;-67
2022/09/03 05:17:58;;;;;;;6.20;4.83;;;15.70;34.70;;;;;;5076412;28;20476;-67
2022/09/03 05:20:26;;;;;;;6.83;5.20;;;15.70;35.10;;;;;;5077449;28;20465;-67
2022/09/03 05:22:53;;;;;;;6.70;5.23;;;15.60;35.10;;;;;;5080021;28;20448;-67
2022/09/03 05:25:21;;;;;;;6.23;4.83;;;15.60;35.10;;;;;;5079264;28;20448;-67
2022/09/03 05:27:48;;;;;;;6.70;4.87;;;15.60;35.30;;;;;;5077375;28;20854;-67
2022/09/03 05:30:15;;;;;;;9.33;5.00;;;15.60;35.20;;;;;;5078360;28;20954;-67
2022/09/03 05:32:42;;;;;;;6.37;4.37;;;15.60;35.80;;;;;;5083762;28;20456;-67
2022/09/03 05:35:09;;;;;;;7.53;5.43;;;15.60;35.90;;;;;;5078184;28;20487;-67
2022/09/03 05:37:37;;;;;;;7.27;4.97;;;15.60;36.20;;;;;;5078683;28;20484;-67
2022/09/03 05:40:04;;;;;;;9.20;5.90;;;15.60;36.30;;;;;;5079776;28;20517;-67
2022/09/03 05:42:37;;;;;;;7.60;5.10;;;15.50;36.70;;;;;;5083292;28;20454;-67
2022/09/03 05:45:07;;;;;;;10.73;6.07;;;15.50;36.50;;;;;;5077703;28;20575;-67
2022/09/03 05:47:33;;;;;;;7.40;5.10;;;15.60;36.60;;;;;;5078472;28;20480;-67
2022/09/03 05:50:00;;;;;;;6.90;5.60;;;15.60;36.70;;;;;;5076766;28;20453;-68
2022/09/03 05:52:27;;;;;;;8.23;6.33;;;15.70;36.60;;;;;;5080147;28;20449;-68
2022/09/03 05:54:54;;;;;;;9.00;5.70;;;15.70;37.00;;;;;;5079380;28;20480;-67
2022/09/03 05:57:21;;;;;;;6.93;5.63;;;15.70;37.00;;;;;;5078937;28;20502;-67
2022/09/03 05:59:49;;;;;;;7.17;5.30;;;15.80;37.20;;;;;;5084538;28;20489;-68
2022/09/03 06:02:16;;;;;;;10.47;6.80;;;15.80;37.40;;;;;;5081383;28;20567;-68
2022/09/03 06:04:43;;;;;;;9.60;7.53;;;15.90;37.80;;;;;;5080983;28;20453;-67
2022/09/03 06:07:10;;;;;;;12.93;8.10;;;15.90;37.90;;;;;;5077215;28;20483;-67
2022/09/03 06:09:36;;;;;;;8.80;6.73;;;16.00;38.10;;;;;;5079113;28;20462;-67
2022/09/03 06:12:03;;;;;;;9.03;6.90;;;16.00;38.00;;;;;;5073921;28;20471;-67
2022/09/03 06:14:30;;;;;;;14.60;7.17;;;16.10;38.30;;;;;;5076892;28;20468;-66
2022/09/03 06:16:58;;;;;;;11.47;7.23;;;16.20;38.30;;;;;;5081533;28;20480;-67
2022/09/03 06:19:25;;;;;;;8.17;6.50;;;16.30;38.30;;;;;;5078055;28;20464;-67
2022/09/03 06:21:51;;;;;;;11.90;8.20;;;16.40;38.10;;;;;;5080792;28;20479;-67
2022/09/03 06:24:22;;;;;;;8.60;6.67;;;16.50;37.90;;;;;;5074413;28;20465;-67
2022/09/03 06:26:49;;;;;;;8.60;6.73;;;16.70;37.50;;;;;;5077873;28;20507;-67
2022/09/03 06:29:17;;;;;;;9.63;7.00;;;16.80;36.90;;;;;;5080214;28;20463;-64
2022/09/03 06:31:44;;;;;;;9.30;6.27;;;17.00;36.70;;;;;;5079188;28;20563;-68
2022/09/03 06:34:12;;;;;;;9.20;6.10;;;17.20;36.50;;;;;;5077240;28;20465;-63
2022/09/03 06:36:39;;;;;;;9.87;6.10;;;17.30;35.80;;;;;;5073635;28;20964;-65
2022/09/03 06:39:06;;;;;;;10.43;6.20;;;17.50;35.80;;;;;;5083328;28;20460;-64
2022/09/03 06:41:34;;;;;;;12.73;6.70;;;17.70;35.00;;;;;;5079307;28;20460;-65
2022/09/03 06:44:02;;;;;;;8.00;7.03;;;18.00;34.40;;;;;;5077093;28;20472;-67
2022/09/03 06:46:30;;;;;;;8.10;5.90;;;18.30;33.90;;;;;;5077579;28;20499;-68
2022/09/03 06:48:57;;;;;;;9.13;6.30;;;18.50;33.60;;;;;;5078316;28;20463;-66
2022/09/03 06:51:27;;;;;;;10.70;6.60;;;18.60;33.60;;;;;;5081124;28;20456;-62
2022/09/03 06:53:59;;;;;;;8.77;6.53;;;18.90;33.60;;;;;;5079046;28;20535;-63
2022/09/03 06:56:26;;;;;;;8.30;5.53;;;19.30;32.30;;;;;;5068498;28;20493;-65
2022/09/03 06:58:54;;;;;;;8.90;5.93;;;19.70;31.50;;;;;;5081638;28;20771;-70
2022/09/03 07:01:24;;;;;;;9.57;5.90;;;20.00;29.90;;;;;;5078212;28;20475;-69
2022/09/03 07:03:55;;;;;;;9.23;5.67;;;20.30;29.10;;;;;;5087113;28;20466;-64
2022/09/03 07:06:23;;;;;;;8.90;5.87;;;20.60;27.80;;;;;;5080598;28;20473;-66
2022/09/03 07:08:52;;;;;;;8.20;5.90;;;20.80;27.10;;;;;;5083386;28;20460;-65
2022/09/03 07:11:22;;;;;;;8.80;5.90;;;20.90;27.10;;;;;;5082393;28;20544;-62
2022/09/03 07:13:51;;;;;;;8.33;5.67;;;21.10;26.60;;;;;;5077317;28;20471;-62
2022/09/03 07:16:20;;;;;;;8.53;5.23;;;21.70;25.20;;;;;;5086764;28;20476;-68
2022/09/03 07:18:47;;;;;;;9.17;5.80;;;21.80;24.40;;;;;;5078799;28;20467;-65
2022/09/03 07:21:15;;;;;;;9.33;5.73;;;21.60;24.00;;;;;;5087643;28;20469;-67
2022/09/03 07:23:43;;;;;;;7.10;5.53;;;21.50;24.10;;;;;;5086157;28;20842;-67
2022/09/03 07:26:13;;;;;;;9.77;5.87;;;21.30;24.40;;;;;;5083934;28;21034;-65
2022/09/03 07:28:42;;;;;;;7.83;6.03;;;21.10;25.20;;;;;;5083305;28;20867;-64
2022/09/03 07:31:11;;;;;;;11.70;6.97;;;20.90;25.60;;;;;;5081784;28;20474;-63
2022/09/03 07:33:38;;;;;;;9.83;5.83;;;20.70;26.70;;;;;;5080061;28;20968;-72
2022/09/03 07:36:07;;;;;;;9.13;6.37;;;20.60;27.40;;;;;;5075418;28;20487;-73
2022/09/03 07:38:35;;;;;;;8.50;6.43;;;20.50;28.00;;;;;;5081678;28;20461;-74
2022/09/03 07:41:03;;;;;;;9.10;6.83;;;20.50;28.00;;;;;;5079647;28;20464;-72
2022/09/03 07:43:35;;;;;;;8.43;6.57;;;20.40;27.90;;;;;;5084385;28;20744;-72
2022/09/03 07:46:03;;;;;;;7.73;5.87;;;20.30;28.00;;;;;;5079682;28;20998;-72
2022/09/03 07:48:29;;;;;;;9.53;6.30;;;20.30;28.40;;;;;;5075247;28;20463;-72
2022/09/03 07:50:59;;;;;;;7.50;5.80;;;20.20;28.60;;;;;;5089271;28;20460;-72
2022/09/03 07:53:27;;;;;;;8.30;5.90;;;20.20;29.00;;;;;;5090710;28;20877;-72
2022/09/03 07:55:55;;;;;;;8.00;6.57;;;20.30;29.20;;;;;;5087373;28;20472;-73
2022/09/03 07:58:23;;;;;;;8.60;6.43;;;20.30;29.20;;;;;;5079402;28;20452;-73
2022/09/03 08:00:51;;;;;;;13.73;7.20;;;20.40;29.50;;;;;;5072047;28;20563;-72
2022/09/03 08:03:18;;;;;;;8.30;6.23;;;20.50;29.70;;;;;;5083458;28;20994;-72
2022/09/03 08:05:45;;;;;;;8.73;6.63;;;20.60;29.70;;;;;;5079150;28;20445;-72
2022/09/03 08:08:16;;;;;;;8.67;5.77;;;20.70;29.70;;;;;;5079919;28;20467;-72
2022/09/03 08:10:43;;;;;;;6.73;5.47;;;20.90;29.60;;;;;;5088213;28;20530;-73
2022/09/03 08:13:10;;;;;;;9.67;6.07;;;21.30;28.00;;;;;;5086142;28;20448;-74
2022/09/03 08:15:39;;;;;;;7.90;5.63;;;21.70;27.50;;;;;;5084527;28;20528;-74
2022/09/03 08:18:07;;;;;;;7.50;5.23;;;22.30;26.90;;;;;;5089802;28;20853;-73
2022/09/03 08:20:34;;;;;;;7.40;5.47;;;23.50;25.00;;;;;;5090094;28;20460;-74
2022/09/03 08:23:01;;;;;;;7.60;4.43;;;24.90;20.90;;;;;;5084535;28;20562;-74
2022/09/03 08:25:28;;;;;;;7.30;4.87;;;25.80;17.70;;;;;;5088503;28;21188;-74
2022/09/03 08:27:58;;;;;;;5.53;3.80;;;26.50;15.50;;;;;;5088286;28;20495;-74
2022/09/03 08:30:26;;;;;;;5.97;3.93;;;26.60;14.80;;;;;;5083092;28;20460;-73
2022/09/03 08:32:53;;;;;;;6.97;4.10;;;26.20;14.70;;;;;;5091121;28;20587;-73
2022/09/03 08:35:21;;;;;;;6.47;4.20;;;25.70;15.10;;;;;;5090468;28;20469;-73
2022/09/03 08:37:50;;;;;;;7.37;4.93;;;25.30;16.30;;;;;;5087282;28;20491;-73
2022/09/03 08:40:17;;;;;;;8.57;4.70;;;24.80;17.10;;;;;;5077137;28;20462;-73
2022/09/03 08:42:56;;;;;;;7.17;4.40;;;24.40;17.90;;;;;;5082513;28;20461;-73
2022/09/03 08:45:23;;;;;;;6.87;4.23;;;24.00;18.70;;;;;;5079101;28;20462;-73
2022/09/03 08:47:55;;;;;;;7.67;5.70;;;23.60;19.20;;;;;;5086738;28;20484;-73
2022/09/03 08:50:26;;;;;;;8.33;4.87;;;23.40;19.90;;;;;;5074897;28;20465;-72
2022/09/03 08:53:00;;;;;;;6.37;4.83;;;23.20;20.30;;;;;;5071087;28;20563;-71
2022/09/03 08:55:30;;;;;;;6.87;5.30;;;23.30;20.30;;;;;;5079019;28;20460;-73
2022/09/03 08:58:03;;;;;;;6.83;4.50;;;23.50;20.00;;;;;;5071345;28;20491;-72
2022/09/03 09:00:40;;;;;;;7.30;4.90;;;23.80;19.80;;;;;;5078133;28;21017;-73
2022/09/03 09:03:38;;;;;;;6.30;4.87;;;23.90;19.40;;;;;;5073030;28;20943;-71
2022/09/03 09:06:17;;;;;;;6.47;4.33;;;23.80;19.00;;;;;;5081586;28;20476;-71
2022/09/03 09:08:58;;;;;;;7.60;5.40;;;23.60;19.60;;;;;;5076941;28;20460;-73
2022/09/03 09:11:37;;;;;;;7.97;5.70;;;23.40;20.00;;;;;;5082461;28;21022;-71
2022/09/03 09:14:10;;;;;;;7.57;4.87;;;23.20;20.90;;;;;;5078445;28;20452;-71
2022/09/03 09:16:47;;;;;;;9.27;6.30;;;23.00;21.20;;;;;;5077348;28;20487;-71
2022/09/03 09:19:32;;;;;;;7.00;5.40;;;22.90;21.70;;;;;;5076041;28;20456;-70
2022/09/03 09:22:03;;;;;;;6.50;5.03;;;22.90;21.70;;;;;;5076611;28;20496;-73
2022/09/03 09:24:39;;;;;;;8.47;4.83;;;23.00;21.70;;;;;;5073527;28;20855;-71
2022/09/03 09:27:06;;;;;;;7.17;5.13;;;23.20;22.20;;;;;;5076738;28;20471;-72
2022/09/03 09:29:36;;;;;;;8.93;5.00;;;23.70;21.80;;;;;;5071048;28;21038;-68
2022/09/03 09:32:06;;;;;;;7.00;4.90;;;24.30;20.00;;;;;;5081883;28;20487;-70
2022/09/03 09:34:35;;;;;;;10.00;5.20;;;24.90;18.60;;;;;;5076486;28;20464;-69
2022/09/03 09:37:05;;;;;;;6.70;4.67;;;25.50;17.10;;;;;;5074664;28;20584;-68
2022/09/03 09:39:32;;;;;;;5.93;4.30;;;25.80;15.80;;;;;;5076550;28;20949;-62
2022/09/03 09:42:01;;;;;;;6.43;3.67;;;26.00;15.90;;;;;;5071704;22;20491;-68
2022/09/03 09:44:28;;;;;;;5.77;3.50;;;26.30;15.00;;;;;;5031628;28;20457;-61
2022/09/03 09:47:05;;;;;;;5.60;3.40;;;26.70;13.40;;;;;;5033413;28;20996;-60
2022/09/03 09:49:36;;;;;;;5.97;3.97;;;27.30;13.30;;;;;;5036249;28;20459;-60
2022/09/03 09:52:10;;;;;;;5.13;3.30;;;28.70;12.10;;;;;;5047200;28;20879;-66
2022/09/03 09:54:38;;;;;;;5.83;3.90;;;31.10;9.50;;;;;;5053751;28;20947;-61
2022/09/03 09:57:08;;;;;;;5.83;3.40;;;32.30;5.80;;;;;;5050616;28;20476;-61
2022/09/03 09:59:36;;;;;;;4.67;3.00;;;33.80;4.20;;;;;;5056151;28;20462;-63
2022/09/03 10:02:13;;;;;;;4.40;2.77;;;34.50;1.20;;;;;;5056290;28;20473;-59
2022/09/03 10:04:42;;;;;;;5.30;3.57;;;34.10;1.40;;;;;;5055199;28;20462;-59
2022/09/03 10:07:23;;;;;;;5.10;3.70;;;33.80;1.80;;;;;;5054837;28;21202;-60
2022/09/03 10:10:04;;;;;;;4.53;2.73;;;33.40;2.20;;;;;;5055810;28;20485;-60
2022/09/03 10:12:35;;;;;;;5.63;3.50;;;32.30;3.40;;;;;;5058907;28;20482;-60
2022/09/03 10:15:11;;;;;;;4.30;2.53;;;31.40;4.60;;;;;;5055308;28;20559;-59
2022/09/03 10:17:48;;;;;;;3.80;2.00;;;30.70;5.20;;;;;;5050244;28;20480;-61
2022/09/03 10:20:30;;;;;;;5.87;2.57;;;30.10;5.90;;;;;;5054788;28;20456;-62
2022/09/03 10:23:06;;;;;;;4.43;1.53;;;29.60;6.30;;;;;;5055566;28;20481;-61
2022/09/03 10:25:49;;;;;;;4.00;1.60;;;29.50;6.20;;;;;;5057364;28;20471;-63
2022/09/03 10:28:16;;;;;;;3.70;1.43;;;29.40;5.90;;;;;;5055336;28;23646;-61
2022/09/03 10:31:03;;;;;;;3.63;1.53;;;29.80;5.60;;;;;;5060216;28;20480;-63
2022/09/03 10:33:35;;;;;;;3.70;1.40;;;29.70;5.50;;;;;;5058094;28;20472;-62
2022/09/03 10:36:14;;;;;;;3.63;1.33;;;29.40;6.00;;;;;;5056121;28;20477;-70
2022/09/03 10:38:43;;;;;;;4.10;1.73;;;29.40;6.20;;;;;;5064228;28;20452;-61
2022/09/03 10:41:27;;;;;;;4.03;1.67;;;29.00;5.90;;;;;;5061586;28;20985;-62
2022/09/03 10:44:20;;;;;;;3.20;1.20;;;29.10;6.60;;;;;;5060142;28;21021;-61
2022/09/03 10:46:59;;;;;;;4.27;1.50;;;32.50;3.20;;;;;;5049208;28;20976;-69
2022/09/03 10:49:50;;;;;;;3.50;1.40;;;35.60;1.00;;;;;;5061905;28;20456;-62
2022/09/03 10:52:27;;;;;;;3.93;1.77;;;36.30;1.00;;;;;;5060716;28;20492;-70
2022/09/03 10:55:12;;;;;;;5.80;1.57;;;35.40;1.00;;;;;;5059968;28;21384;-60
2022/09/03 10:57:45;;;;;;;4.33;1.20;;;37.70;1.00;;;;;;5058628;28;20480;-63
2022/09/03 11:00:14;;;;;;;3.50;1.60;;;39.90;1.00;;;;;;5059979;28;20464;-68
2022/09/03 11:03:20;;;;;;;3.23;1.27;;;41.00;1.00;;;;;;5058357;28;20487;-71
2022/09/03 11:05:58;;;;;;;3.27;1.50;;;41.10;1.00;;;;;;5061845;28;20463;-67
2022/09/03 11:08:30;;;;;;;3.40;1.40;;;38.70;1.00;;;;;;5058297;28;20460;-73
2022/09/03 11:11:10;;;;;;;3.73;1.60;;;36.50;1.00;;;;;;5061173;28;20461;-70
2022/09/03 11:13:42;;;;;;;3.43;1.47;;;35.80;1.00;;;;;;5062316;28;20460;-69
2022/09/03 11:16:14;;;;;;;3.70;1.17;;;35.30;1.00;;;;;;5062482;28;20976;-65
2022/09/03 11:18:46;;;;;;;3.20;1.23;;;34.70;1.00;;;;;;5059989;28;20459;-67
2022/09/03 11:21:18;;;;;;;4.00;1.50;;;34.00;1.00;;;;;;5063413;28;20481;-68
2022/09/03 11:23:48;;;;;;;3.93;1.20;;;33.20;1.00;;;;;;5060200;28;20469;-69
2022/09/03 11:26:20;;;;;;;4.07;1.53;;;32.60;1.00;;;;;;5062573;28;20460;-70
2022/09/03 11:28:57;;;;;;;3.87;1.20;;;31.90;1.20;;;;;;5060249;28;20454;-69
2022/09/03 11:31:33;;;;;;;4.43;1.80;;;31.30;1.90;;;;;;5057459;28;20495;-69
2022/09/03 11:34:05;;;;;;;3.90;1.43;;;30.70;2.60;;;;;;5058025;28;20465;-65
2022/09/03 11:36:35;;;;;;;5.20;1.80;;;30.20;3.50;;;;;;5057128;28;20473;-67
2022/09/03 11:39:15;;;;;;;3.93;1.50;;;29.70;4.70;;;;;;5061788;28;20465;-69
2022/09/03 11:41:43;;;;;;;4.10;1.70;;;29.40;5.30;;;;;;5060329;28;20499;-69
2022/09/03 11:44:36;;;;;;;3.57;1.40;;;29.20;6.00;;;;;;5059271;28;20465;-71
2022/09/03 11:47:15;;;;;;;5.77;1.70;;;29.00;6.00;;;;;;5055113;28;20548;-69
2022/09/03 11:49:49;;;;;;;3.93;1.30;;;28.90;6.60;;;;;;5050027;28;20519;-69
2022/09/03 11:52:26;;;;;;;4.20;1.80;;;28.70;6.80;;;;;;5057310;28;20513;-70
2022/09/03 11:54:53;;;;;;;4.07;1.70;;;28.50;7.30;;;;;;5056780;28;20511;-70
2022/09/03 11:57:27;;;;;;;3.60;1.30;;;28.50;7.40;;;;;;5060156;28;20486;-69
2022/09/03 11:59:55;;;;;;;3.73;1.40;;;28.30;7.60;;;;;;5056790;28;20464;-69
2022/09/03 12:02:28;;;;;;;4.43;1.60;;;28.10;7.10;;;;;;5056322;28;20481;-69
2022/09/03 12:05:11;;;;;;;3.70;1.43;;;27.80;7.10;;;;;;5054913;28;20481;-70
2022/09/03 12:07:58;;;;;;;4.60;2.07;;;27.50;7.60;;;;;;5053051;28;20457;-67
2022/09/03 12:10:41;;;;;;;4.40;1.37;;;27.20;8.10;;;;;;5059106;28;20466;-66
2022/09/03 12:13:31;;;;;;;4.43;1.60;;;26.80;8.70;;;;;;5058394;28;20468;-66
2022/09/03 12:16:16;;;;;;;10.47;2.00;;;26.40;9.80;;;;;;5055067;28;20465;-66
2022/09/03 12:18:44;;;;;;;9.30;3.20;;;26.00;10.80;;;;;;5054880;28;20966;-65
2022/09/03 12:21:11;;;;;;;6.23;1.80;;;25.20;14.10;;;;;;5058625;28;23364;-67
2022/09/03 12:23:43;;;;;;;8.13;2.30;;;24.30;16.10;;;;;;5054560;28;20491;-67
2022/09/03 12:26:13;;;;;;;8.97;2.53;;;23.60;18.40;;;;;;5052259;28;20540;-65
2022/09/03 12:28:43;;;;;;;5.93;1.83;;;22.90;19.60;;;;;;5051013;28;20460;-67
2022/09/03 12:31:20;;;;;;;4.30;1.93;;;22.50;21.00;;;;;;5059502;28;20473;-62
2022/09/03 12:33:50;;;;;;;5.87;2.33;;;22.30;21.70;;;;;;5056486;28;20463;-60
2022/09/03 12:36:17;;;;;;;4.03;1.20;;;22.20;22.30;;;;;;5051697;28;20561;-62
2022/09/03 12:38:46;;;;;;;4.20;1.53;;;22.10;22.60;;;;;;5058406;28;20473;-64
2022/09/03 12:41:26;;;;;;;4.10;1.70;;;22.20;22.20;;;;;;5052724;28;20840;-63
2022/09/03 12:43:57;;;;;;;5.10;1.50;;;22.30;22.50;;;;;;5053098;28;20793;-63
2022/09/03 12:46:25;;;;;;;5.30;1.70;;;22.50;22.80;;;;;;5053510;28;20465;-64
2022/09/03 12:49:02;;;;;;;4.53;1.40;;;22.70;22.60;;;;;;5049759;28;21000;-61
2022/09/03 12:51:32;;;;;;;4.60;2.00;;;23.00;22.10;;;;;;5051370;28;20499;-63
2022/09/03 12:54:00;;;;;;;5.20;1.83;;;23.20;22.10;;;;;;5051679;28;20472;-61
2022/09/03 12:56:33;;;;;;;4.83;1.87;;;23.30;21.70;;;;;;5054329;28;21135;-62
2022/09/03 12:59:06;;;;;;;5.27;1.90;;;23.40;21.90;;;;;;5055468;28;20497;-61
2022/09/03 13:01:40;;;;;;;5.70;1.70;;;23.50;22.70;;;;;;5049535;28;20485;-62
2022/09/03 13:04:10;;;;;;;5.23;1.90;;;23.70;22.60;;;;;;5055271;28;20490;-65
2022/09/03 13:06:48;;;;;;;5.40;1.60;;;23.80;21.90;;;;;;5058196;28;20458;-64
2022/09/03 13:09:20;;;;;;;4.67;1.70;;;24.10;22.90;;;;;;5054176;28;20460;-63